Time;durP1;ratioP1;P1;durP2;ratioP2;P2;SDS_P1;SDS_P2;PMS_P1;PMS_P2;Temp;Humidity;BMP_temperature;BMP_pressure;BME280_temperature;BME280_humidity;BME280_pressure;Samples;Min_cycle;Max_cycle;Signal;HPM_P1;HPM_P2
2022/02/03 00:00:42;;;;;;;0.95;0.25;;;;;;;;;;4346500;33;20123;-93
2022/02/03 00:03:30;;;;;;;0.10;0.10;;;;;;;;;;4351764;32;20071;-93
2022/02/03 00:06:07;;;;;;;1.05;0.20;;;;;;;;;;4361018;32;20122;-93
2022/02/03 00:08:58;;;;;;;0.32;0.20;;;;;;;;;;4358278;32;20035;-92
2022/02/03 00:16:58;;;;;;;0.75;0.20;;;;;;;;;;4375503;32;20093;-93
2022/02/03 00:25:11;;;;;;;0.70;0.10;;;;;;;;;;4368931;32;20071;-93
2022/02/03 00:27:51;;;;;;;0.35;0.13;;;;;;;;;;4363358;32;20102;-93
2022/02/03 00:30:32;;;;;;;2.00;0.40;;;;;;;;;;4336374;33;20077;-93
2022/02/03 00:36:00;;;;;;;0.75;0.30;;;;;;;;;;4373995;32;20073;-93
2022/02/03 00:49:43;;;;;;;1.17;0.28;;;;;;;;;;4377806;32;20083;-92
2022/02/03 00:52:34;;;;;;;1.48;0.30;;;;;;;;;;4366087;32;20039;-94
2022/02/03 00:55:06;;;;;;;2.10;0.30;;;;;;;;;;4350788;32;20044;-94
2022/02/03 00:57:49;;;;;;;1.73;0.30;;;;;;;;;;4362698;32;20055;-91
2022/02/03 01:00:18;;;;;;;1.48;0.40;;;;;;;;;;4343740;32;20111;-91
2022/02/03 01:02:49;;;;;;;0.52;0.30;;;;;;;;;;4357694;33;20075;-91
2022/02/03 01:05:19;;;;;;;1.35;0.30;;;;;;;;;;4346733;33;20091;-92
2022/02/03 01:07:50;;;;;;;1.25;0.20;;;;;;;;;;4348097;33;20091;-91
2022/02/03 01:10:24;;;;;;;0.40;0.20;;;;;;;;;;4347906;33;20086;-91
2022/02/03 01:13:24;;;;;;;0.30;0.20;;;;;;;;;;4337067;33;20085;-92
2022/02/03 01:15:52;;;;;;;1.48;0.40;;;;;;;;;;4349223;33;20039;-93
2022/02/03 01:43:31;;;;;;;2.40;0.30;;;;;;;;;;4378102;32;20408;-93
2022/02/03 01:46:14;;;;;;;1.60;0.40;;;;;;;;;;4353046;32;20061;-93
2022/02/03 01:51:42;;;;;;;0.80;0.32;;;;;;;;;;4375263;32;20078;-93
2022/02/03 01:54:14;;;;;;;0.43;0.30;;;;;;;;;;4351835;32;20130;-93
2022/02/03 01:57:00;;;;;;;0.73;0.40;;;;;;;;;;4376878;32;20374;-94
2022/02/03 01:59:29;;;;;;;1.65;0.30;;;;;;;;;;4351747;32;20055;-93
2022/02/03 02:01:59;;;;;;;1.10;0.30;;;;;;;;;;4377857;32;20067;-93
2022/02/03 02:04:48;;;;;;;0.95;0.40;;;;;;;;;;4376759;32;20423;-93
2022/02/03 02:07:27;;;;;;;1.00;0.30;;;;;;;;;;4364077;32;20043;-93
2022/02/03 02:13:42;;;;;;;0.20;0.20;;;;;;;;;;4333117;33;20048;-93
2022/02/03 02:19:07;;;;;;;0.80;0.30;;;;;;;;;;4362701;33;20115;-92
2022/02/03 02:39:12;;;;;;;1.15;0.40;;;;;;;;;;4362366;33;20036;-92
2022/02/03 02:42:28;;;;;;;1.77;0.40;;;;;;;;;;4349333;33;20062;-92
2022/02/03 02:44:48;;;;;;;0.75;0.20;;;;;;;;;;4362246;32;20031;-93
2022/02/03 02:47:35;;;;;;;2.28;0.25;;;;;;;;;;4348890;33;20036;-93
2022/02/03 02:50:08;;;;;;;0.68;0.20;;;;;;;;;;4362463;33;20470;-93
2022/02/03 02:52:47;;;;;;;0.55;0.25;;;;;;;;;;4348554;33;20044;-93
2022/02/03 02:55:44;;;;;;;1.55;0.22;;;;;;;;;;4336800;33;20052;-93
2022/02/03 02:58:52;;;;;;;0.70;0.30;;;;;;;;;;4349027;33;20028;-93
2022/02/03 03:29:19;;;;;;;0.75;0.20;;;;;;;;;;4345038;33;20054;-91
2022/02/03 03:35:26;;;;;;;0.80;0.20;;;;;;;;;;4348873;33;20090;-91
2022/02/03 03:37:25;;;;;;;0.55;0.30;;;;;;;;;;4329779;33;20090;-91
2022/02/03 03:40:01;;;;;;;0.43;0.20;;;;;;;;;;4348625;33;20040;-91
2022/02/03 03:42:31;;;;;;;0.62;0.20;;;;;;;;;;4347023;33;20118;-91
2022/02/03 03:45:03;;;;;;;1.77;0.17;;;;;;;;;;4334189;33;20078;-91
2022/02/03 03:47:34;;;;;;;0.20;0.20;;;;;;;;;;4321604;33;20048;-91
2022/02/03 03:50:11;;;;;;;0.93;0.20;;;;;;;;;;4334017;33;20059;-91
2022/02/03 03:52:46;;;;;;;0.73;0.20;;;;;;;;;;4346873;33;20075;-91
2022/02/03 03:55:58;;;;;;;0.40;0.20;;;;;;;;;;4341162;33;20074;-91
2022/02/03 04:56:44;;;;;;;1.30;0.40;;;;;;;;;;4393724;32;20429;-91
2022/02/03 05:02:54;;;;;;;0.37;0.30;;;;;;;;;;4367397;32;20086;-91
2022/02/03 05:06:01;;;;;;;0.62;0.28;;;;;;;;;;4393069;32;20316;-93
2022/02/03 05:43:02;;;;;;;0.40;0.20;;;;;;;;;;4393953;32;20061;-92
2022/02/03 06:05:08;;;;;;;0.70;0.10;;;;;;;;;;4364514;32;20362;-92
2022/02/03 06:07:49;;;;;;;0.65;0.20;;;;;;;;;;4372314;32;20044;-92
2022/02/03 06:13:11;;;;;;;0.17;0.17;;;;;;;;;;4375717;32;20047;-92
2022/02/03 06:15:48;;;;;;;0.52;0.10;;;;;;;;;;4365389;32;20101;-92
2022/02/03 06:21:25;;;;;;;0.45;0.10;;;;;;;;;;4349467;33;20063;-91
2022/02/03 06:23:59;;;;;;;0.35;0.30;;;;;;;;;;4337710;33;20044;-91
2022/02/03 06:29:23;;;;;;;0.20;0.20;;;;;;;;;;4363149;33;20054;-91
2022/02/03 06:31:53;;;;;;;0.32;0.20;;;;;;;;;;4361705;33;20051;-91
2022/02/03 06:34:23;;;;;;;0.52;0.10;;;;;;;;;;4362843;32;20038;-91
2022/02/03 06:36:53;;;;;;;0.62;0.10;;;;;;;;;;4362344;32;20036;-91
2022/02/03 06:39:27;;;;;;;0.30;0.10;;;;;;;;;;4364260;32;20085;-91
2022/02/03 06:41:58;;;;;;;0.52;0.20;;;;;;;;;;4349303;32;20032;-92
2022/02/03 06:44:34;;;;;;;1.05;0.20;;;;;;;;;;4361451;33;20051;-92
2022/02/03 06:47:12;;;;;;;0.43;0.17;;;;;;;;;;4349103;33;20052;-91
2022/02/03 06:52:39;;;;;;;0.85;0.20;;;;;;;;;;4364538;32;20433;-91
2022/02/03 06:55:25;;;;;;;0.43;0.20;;;;;;;;;;4357579;32;20052;-91
2022/02/03 06:58:02;;;;;;;0.20;0.20;;;;;;;;;;4360903;33;20412;-92
2022/02/03 07:00:36;;;;;;;1.10;0.15;;;;;;;;;;4338572;32;20106;-93
2022/02/03 07:03:18;;;;;;;4.53;0.75;;;;;;;;;;4348583;33;20039;-90
2022/02/03 07:05:47;;;;;;;5.35;1.10;;;;;;;;;;4361354;32;20059;-91
2022/02/03 07:08:18;;;;;;;6.30;1.42;;;;;;;;;;4348435;33;20044;-91
2022/02/03 07:10:51;;;;;;;8.88;1.67;;;;;;;;;;4369186;32;20062;-91
2022/02/03 07:13:20;;;;;;;6.53;1.48;;;;;;;;;;4359732;32;20082;-90
2022/02/03 07:15:50;;;;;;;12.77;2.03;;;;;;;;;;4362416;32;20066;-90
2022/02/03 07:18:19;;;;;;;11.27;2.17;;;;;;;;;;4377846;32;20043;-90
2022/02/03 07:20:48;;;;;;;10.65;1.87;;;;;;;;;;4377992;32;20043;-90
2022/02/03 07:23:17;;;;;;;9.55;2.15;;;;;;;;;;4353413;32;20415;-90
2022/02/03 07:25:46;;;;;;;9.70;1.77;;;;;;;;;;4371383;32;20676;-90
2022/02/03 07:28:14;;;;;;;13.25;1.95;;;;;;;;;;4361774;33;20036;-89
2022/02/03 07:30:44;;;;;;;8.27;1.92;;;;;;;;;;4360534;33;20120;-90
2022/02/03 07:33:13;;;;;;;11.80;2.15;;;;;;;;;;4353175;32;20413;-90
2022/02/03 07:35:42;;;;;;;10.57;2.37;;;;;;;;;;4362490;32;20128;-91
2022/02/03 07:38:11;;;;;;;15.45;2.90;;;;;;;;;;4351576;32;20094;-91
2022/02/03 07:40:41;;;;;;;11.50;2.20;;;;;;;;;;4361560;32;20054;-90
2022/02/03 07:43:11;;;;;;;10.82;2.62;;;;;;;;;;4361961;32;20069;-91
2022/02/03 07:45:41;;;;;;;10.75;2.55;;;;;;;;;;4376280;32;20350;-92
2022/02/03 07:48:09;;;;;;;9.98;2.20;;;;;;;;;;4362990;32;20051;-92
2022/02/03 07:50:38;;;;;;;9.30;1.73;;;;;;;;;;4352677;32;20420;-91
2022/02/03 07:53:08;;;;;;;9.60;1.77;;;;;;;;;;4361769;32;20153;-91
2022/02/03 07:55:36;;;;;;;10.48;1.95;;;;;;;;;;4362633;32;20059;-91
2022/02/03 07:58:05;;;;;;;9.20;2.10;;;;;;;;;;4349576;32;20385;-91
2022/02/03 08:00:35;;;;;;;16.58;2.15;;;;;;;;;;4375948;32;20056;-91
2022/02/03 08:03:14;;;;;;;9.27;2.20;;;;;;;;;;4362293;32;20068;-91
2022/02/03 08:05:48;;;;;;;11.93;2.40;;;;;;;;;;4376165;32;20423;-91
2022/02/03 08:08:22;;;;;;;10.90;2.28;;;;;;;;;;4351169;32;20114;-91
2022/02/03 08:10:56;;;;;;;9.55;2.00;;;;;;;;;;4349777;32;20043;-91
2022/02/03 08:13:39;;;;;;;;;;;;;;;;;;4362484;32;20035;-91
2022/02/03 08:16:15;;;;;;;11.02;2.10;;;;;;;;;;4350238;32;19986;-91
2022/02/03 08:18:50;;;;;;;10.70;2.20;;;;;;;;;;4361755;32;20062;-91
2022/02/03 08:21:20;;;;;;;9.93;2.47;;;;;;;;;;4362002;32;20046;-90
2022/02/03 08:24:15;;;;;;;12.07;2.65;;;;;;;;;;4362784;32;20039;-91
2022/02/03 08:32:06;;;;;;;8.43;2.55;;;;;;;;;;4378678;32;20055;-91
2022/02/03 08:34:46;;;;;;;17.17;2.40;;;;;;;;;;4376846;32;20423;-91
2022/02/03 08:37:16;;;;;;;12.02;2.53;;;;;;;;;;4354191;32;20035;-91
2022/02/03 08:39:54;;;;;;;14.68;2.28;;;;;;;;;;4366820;32;20047;-90
2022/02/03 08:42:28;;;;;;;7.62;2.12;;;;;;;;;;4355190;32;20043;-91
2022/02/03 08:44:58;;;;;;;10.80;2.20;;;;;;;;;;4367019;32;20320;-91
2022/02/03 08:47:27;;;;;;;10.23;2.00;;;;;;;;;;4354768;32;20035;-90
2022/02/03 08:50:21;;;;;;;10.85;2.33;;;;;;;;;;4377984;32;20073;-90
2022/02/03 08:53:02;;;;;;;12.95;2.25;;;;;;;;;;4354025;32;20052;-91
2022/02/03 08:58:39;;;;;;;12.18;2.08;;;;;;;;;;4379804;32;20035;-91
2022/02/03 09:33:28;;;;;;;17.48;2.60;;;;;;;;;;4350547;33;20074;-92
2022/02/03 09:35:18;;;;;;;11.15;2.33;;;;;;;;;;4352415;33;20046;-89
2022/02/03 09:40:37;;;;;;;10.70;2.47;;;;;;;;;;4378706;32;20031;-90
2022/02/03 09:54:32;;;;;;;18.73;3.75;;;;;;;;;;4358903;33;20093;-90
2022/02/03 09:57:31;;;;;;;14.63;3.08;;;;;;;;;;4363433;33;20070;-90
2022/02/03 10:00:44;;;;;;;21.23;3.33;;;;;;;;;;4363844;32;20078;-90
2022/02/03 10:03:19;;;;;;;18.33;3.13;;;;;;;;;;4316832;33;20428;-91
2022/02/03 10:06:04;;;;;;;17.10;3.17;;;;;;;;;;4316689;33;20053;-92
2022/02/03 10:08:34;;;;;;;16.05;3.62;;;;;;;;;;4324799;33;20087;-90
2022/02/03 10:11:14;;;;;;;20.30;3.72;;;;;;;;;;4361459;32;20097;-89
2022/02/03 10:13:45;;;;;;;19.08;3.33;;;;;;;;;;4361269;33;20090;-89
2022/02/03 10:16:14;;;;;;;23.23;4.10;;;;;;;;;;4362212;32;20097;-90
2022/02/03 10:18:44;;;;;;;26.45;3.87;;;;;;;;;;4361656;33;20102;-90
2022/02/03 10:21:17;;;;;;;23.15;3.78;;;;;;;;;;4362550;33;20041;-89
2022/02/03 10:23:54;;;;;;;23.05;3.67;;;;;;;;;;4364537;32;20058;-90
2022/02/03 10:26:30;;;;;;;22.98;3.28;;;;;;;;;;4361791;33;20082;-89
2022/02/03 10:28:59;;;;;;;28.58;4.30;;;;;;;;;;4362589;33;20457;-89
2022/02/03 10:31:38;;;;;;;17.25;3.22;;;;;;;;;;4349813;33;20031;-90
2022/02/03 10:34:16;;;;;;;29.02;4.05;;;;;;;;;;4351211;32;20048;-91
2022/02/03 10:45:14;;;;;;;24.37;3.83;;;;;;;;;;4364019;32;20047;-91
2022/02/03 10:48:31;;;;;;;20.40;4.22;;;;;;;;;;4361244;32;20052;-90
2022/02/03 10:50:57;;;;;;;22.55;5.00;;;;;;;;;;4360630;33;20036;-90
2022/02/03 10:54:02;;;;;;;20.25;4.97;;;;;;;;;;4362760;32;20111;-90
2022/02/03 10:57:04;;;;;;;21.60;4.18;;;;;;;;;;4357308;32;20069;-90
2022/02/03 11:02:46;;;;;;;27.85;4.72;;;;;;;;;;4377449;32;20419;-90
2022/02/03 11:08:08;;;;;;;26.00;4.60;;;;;;;;;;4363435;32;20094;-90
2022/02/03 11:10:41;;;;;;;24.60;4.40;;;;;;;;;;4376959;32;20045;-91
2022/02/03 11:13:10;;;;;;;15.27;3.70;;;;;;;;;;4362955;32;20044;-91
2022/02/03 11:15:41;;;;;;;20.98;3.58;;;;;;;;;;4361923;32;20044;-91
2022/02/03 11:18:12;;;;;;;20.77;3.70;;;;;;;;;;4363581;32;20028;-92
2022/02/03 11:20:42;;;;;;;19.17;3.85;;;;;;;;;;4379968;32;20429;-91
2022/02/03 11:28:34;;;;;;;13.88;3.20;;;;;;;;;;4351089;33;20457;-91
2022/02/03 11:34:25;;;;;;;21.50;3.45;;;;;;;;;;4363040;32;20075;-91
2022/02/03 11:53:53;;;;;;;14.77;3.20;;;;;;;;;;4360507;33;20036;-90
2022/02/03 12:02:13;;;;;;;;;;;;;;;;;;4332406;33;20055;-90
2022/02/03 12:10:39;;;;;;;15.68;3.37;;;;;;;;;;4361251;33;20046;-90
2022/02/03 12:16:30;;;;;;;19.12;3.70;;;;;;;;;;4346653;33;20058;-90
2022/02/03 12:19:22;;;;;;;14.40;3.12;;;;;;;;;;4348533;33;20107;-89
2022/02/03 12:22:36;;;;;;;15.98;3.40;;;;;;;;;;4360808;33;20407;-91
2022/02/03 12:25:33;;;;;;;20.73;3.60;;;;;;;;;;4360312;33;20117;-90
2022/02/03 12:28:10;;;;;;;22.83;4.00;;;;;;;;;;4347707;33;20052;-89
2022/02/03 12:39:06;;;;;;;27.40;4.05;;;;;;;;;;4349907;32;20059;-89
2022/02/03 12:42:01;;;;;;;19.92;3.90;;;;;;;;;;4378829;32;20472;-89
2022/02/03 12:44:27;;;;;;;20.42;3.80;;;;;;;;;;4379062;32;20553;-90
2022/02/03 12:47:02;;;;;;;26.62;4.35;;;;;;;;;;4364976;32;20468;-91
2022/02/03 12:49:36;;;;;;;23.02;4.05;;;;;;;;;;4377383;32;20057;-90
2022/02/03 12:52:20;;;;;;;23.45;3.85;;;;;;;;;;4379613;32;20043;-89
2022/02/03 12:54:49;;;;;;;25.23;3.95;;;;;;;;;;4392094;32;20051;-89
2022/02/03 12:57:27;;;;;;;23.60;4.28;;;;;;;;;;4390216;32;20093;-89
2022/02/03 13:00:12;;;;;;;28.92;4.43;;;;;;;;;;4391338;32;20042;-88
2022/02/03 13:02:41;;;;;;;21.77;3.50;;;;;;;;;;4377324;32;20059;-89
2022/02/03 13:05:15;;;;;;;21.65;3.67;;;;;;;;;;4385674;32;20092;-89
2022/02/03 13:07:44;;;;;;;22.48;4.10;;;;;;;;;;4377838;32;20059;-89
2022/02/03 13:10:16;;;;;;;18.42;3.75;;;;;;;;;;4392439;32;20069;-89
2022/02/03 13:12:53;;;;;;;25.83;4.40;;;;;;;;;;4382096;32;20043;-90
2022/02/03 13:15:38;;;;;;;21.08;4.10;;;;;;;;;;4383406;32;20055;-89
2022/02/03 13:18:35;;;;;;;23.30;4.22;;;;;;;;;;4365062;32;20437;-89
2022/02/03 13:23:28;;;;;;;25.42;4.12;;;;;;;;;;4380207;32;20398;-89
2022/02/03 13:26:14;;;;;;;30.40;4.55;;;;;;;;;;4378249;32;20366;-89
2022/02/03 13:29:00;;;;;;;28.77;4.35;;;;;;;;;;4378617;32;20031;-89
2022/02/03 13:31:56;;;;;;;20.90;3.80;;;;;;;;;;4378110;32;20049;-89
2022/02/03 13:37:13;;;;;;;22.83;4.50;;;;;;;;;;4379109;32;20039;-89
2022/02/03 13:40:01;;;;;;;22.17;5.03;;;;;;;;;;4380255;32;20103;-89
2022/02/03 13:42:30;;;;;;;27.62;4.30;;;;;;;;;;4378109;32;20020;-89
2022/02/03 13:45:04;;;;;;;22.95;4.00;;;;;;;;;;4377704;32;20070;-89
2022/02/03 13:47:35;;;;;;;21.12;4.25;;;;;;;;;;4376555;32;20027;-89
2022/02/03 13:50:04;;;;;;;30.00;4.75;;;;;;;;;;4378650;32;20458;-89
2022/02/03 13:53:11;;;;;;;21.15;3.80;;;;;;;;;;4377543;32;20031;-89
2022/02/03 14:13:20;;;;;;;29.25;4.93;;;;;;;;;;4365510;32;20102;-89
2022/02/03 14:15:20;;;;;;;28.58;4.75;;;;;;;;;;4377890;32;20430;-90
2022/02/03 14:28:39;;;;;;;32.10;4.85;;;;;;;;;;4379569;32;20110;-89
2022/02/03 14:31:09;;;;;;;32.80;5.07;;;;;;;;;;4377583;32;20325;-89
2022/02/03 14:33:41;;;;;;;32.95;5.20;;;;;;;;;;4376366;32;20460;-90
2022/02/03 14:36:14;;;;;;;27.30;4.65;;;;;;;;;;4383615;32;20057;-90
2022/02/03 14:38:50;;;;;;;25.27;4.53;;;;;;;;;;4379034;32;20062;-91
2022/02/03 14:41:34;;;;;;;31.30;4.60;;;;;;;;;;4360239;32;20084;-89
2022/02/03 14:44:04;;;;;;;23.80;4.62;;;;;;;;;;4365423;32;20081;-89
2022/02/03 14:46:35;;;;;;;25.02;4.57;;;;;;;;;;4380814;32;20086;-89
2022/02/03 14:49:03;;;;;;;27.00;4.37;;;;;;;;;;4379214;32;20057;-90
2022/02/03 14:51:45;;;;;;;20.02;4.15;;;;;;;;;;4379537;32;20079;-90
2022/02/03 14:59:41;;;;;;;15.02;3.15;;;;;;;;;;4379589;32;20051;-90
2022/02/03 15:02:12;;;;;;;20.48;3.40;;;;;;;;;;4378859;32;20441;-89
2022/02/03 15:04:51;;;;;;;15.77;2.85;;;;;;;;;;4350165;32;20036;-90
2022/02/03 15:07:22;;;;;;;13.23;2.40;;;;;;;;;;4378643;32;20023;-89
2022/02/03 15:10:15;;;;;;;18.55;2.60;;;;;;;;;;4375746;32;20047;-91
2022/02/03 15:12:56;;;;;;;16.37;2.72;;;;;;;;;;4376580;32;20073;-89
2022/02/03 15:15:26;;;;;;;16.77;2.55;;;;;;;;;;4351818;32;20360;-89
2022/02/03 15:17:54;;;;;;;16.12;2.70;;;;;;;;;;4376490;32;20151;-90
2022/02/03 15:20:23;;;;;;;10.20;2.40;;;;;;;;;;4363204;32;20449;-90
2022/02/03 15:22:53;;;;;;;16.12;2.80;;;;;;;;;;4375899;32;20074;-90
2022/02/03 15:25:21;;;;;;;12.23;2.50;;;;;;;;;;4361944;32;20047;-90
2022/02/03 15:27:50;;;;;;;8.32;1.92;;;;;;;;;;4376507;32;20047;-90
2022/02/03 15:30:19;;;;;;;8.05;1.92;;;;;;;;;;4363371;32;20039;-90
2022/02/03 15:32:49;;;;;;;7.25;2.00;;;;;;;;;;4362091;32;20084;-90
2022/02/03 15:35:35;;;;;;;11.02;2.08;;;;;;;;;;4377673;32;20038;-90
2022/02/03 15:38:06;;;;;;;13.07;2.25;;;;;;;;;;4375757;32;20035;-90
2022/02/03 15:40:37;;;;;;;7.85;1.80;;;;;;;;;;4376347;32;20071;-90
2022/02/03 15:43:10;;;;;;;9.85;1.85;;;;;;;;;;4362259;32;20083;-91
2022/02/03 15:45:43;;;;;;;8.57;1.67;;;;;;;;;;4376072;32;20084;-91
2022/02/03 15:48:19;;;;;;;6.93;1.95;;;;;;;;;;4375821;32;20031;-91
2022/02/03 16:04:20;;;;;;;6.95;1.60;;;;;;;;;;4362213;32;20055;-90
2022/02/03 16:17:51;;;;;;;8.27;1.48;;;;;;;;;;4375965;32;20050;-90
2022/02/03 16:20:25;;;;;;;5.60;1.50;;;;;;;;;;4361709;32;20119;-90
2022/02/03 16:23:06;;;;;;;8.50;1.67;;;;;;;;;;4376051;32;20044;-90
2022/02/03 16:53:15;;;;;;;6.25;1.40;;;;;;;;;;4380471;32;20070;-90
2022/02/03 16:55:46;;;;;;;5.50;1.37;;;;;;;;;;4364704;32;20147;-91
2022/02/03 16:58:16;;;;;;;6.93;1.42;;;;;;;;;;4365115;32;20089;-91
2022/02/03 17:00:46;;;;;;;5.78;1.40;;;;;;;;;;4378254;32;20031;-91
2022/02/03 17:03:17;;;;;;;6.43;1.40;;;;;;;;;;4366218;32;20082;-91
2022/02/03 17:05:47;;;;;;;6.95;1.08;;;;;;;;;;4364240;32;20047;-91
2022/02/03 17:08:15;;;;;;;10.43;1.48;;;;;;;;;;4365094;32;20520;-91
2022/02/03 17:10:44;;;;;;;4.78;1.25;;;;;;;;;;4378119;32;20054;-91
2022/02/03 17:13:13;;;;;;;7.30;1.50;;;;;;;;;;4364341;32;20473;-91
2022/02/03 17:15:45;;;;;;;6.30;1.40;;;;;;;;;;4379453;32;20040;-91
2022/02/03 17:18:13;;;;;;;3.78;1.30;;;;;;;;;;4373635;32;20055;-91
2022/02/03 17:20:43;;;;;;;5.32;1.08;;;;;;;;;;4376321;32;20057;-90
2022/02/03 17:23:16;;;;;;;5.78;1.10;;;;;;;;;;4364785;32;20039;-90
2022/02/03 17:25:55;;;;;;;6.65;1.50;;;;;;;;;;4365133;32;20058;-90
2022/02/03 17:31:23;;;;;;;5.53;1.17;;;;;;;;;;4378215;32;20058;-91
2022/02/03 17:52:28;;;;;;;39.10;5.15;;;;;;;;;;4366060;32;20133;-91
2022/02/03 18:09:59;;;;;;;15.88;3.10;;;;;;;;;;4377198;32;20028;-90
2022/02/03 18:32:32;;;;;;;9.88;2.03;;;;;;;;;;4362237;32;20048;-91
2022/02/03 18:51:13;;;;;;;9.70;1.73;;;;;;;;;;4377182;32;20106;-90
2022/02/03 18:53:57;;;;;;;6.18;1.62;;;;;;;;;;4365147;32;20035;-91
2022/02/03 19:23:41;;;;;;;3.67;1.05;;;;;;;;;;4376062;32;20054;-90
2022/02/03 19:56:18;;;;;;;;;;;;;;;;;;4375352;32;20057;-91
2022/02/03 20:03:20;;;;;;;5.35;1.02;;;;;;;;;;4375739;32;20051;-92
2022/02/03 20:08:20;;;;;;;5.18;1.10;;;;;;;;;;4374907;32;20415;-92
2022/02/03 20:10:51;;;;;;;5.37;0.95;;;;;;;;;;4375685;32;20039;-92
2022/02/03 20:13:20;;;;;;;4.50;1.12;;;;;;;;;;4349733;32;20039;-92
2022/02/03 20:15:50;;;;;;;4.90;0.93;;;;;;;;;;4349895;32;20114;-90
2022/02/03 20:18:19;;;;;;;4.53;1.20;;;;;;;;;;4349367;32;20180;-90
2022/02/03 20:20:48;;;;;;;3.70;0.95;;;;;;;;;;4360816;32;20394;-91
2022/02/03 20:23:21;;;;;;;2.92;0.85;;;;;;;;;;4375359;32;20103;-90
2022/02/03 20:25:56;;;;;;;5.30;1.00;;;;;;;;;;4361392;32;20402;-90
2022/02/03 20:28:26;;;;;;;4.00;1.00;;;;;;;;;;4361794;32;20057;-90
2022/02/03 20:30:55;;;;;;;8.65;1.05;;;;;;;;;;4374982;32;20046;-90
2022/02/03 20:33:24;;;;;;;5.78;0.90;;;;;;;;;;4376617;32;20180;-90
2022/02/03 20:35:53;;;;;;;6.03;0.95;;;;;;;;;;4375544;32;20040;-90
2022/02/03 20:38:22;;;;;;;4.60;0.80;;;;;;;;;;4362047;32;20111;-90
2022/02/03 20:40:50;;;;;;;5.28;0.75;;;;;;;;;;4361922;32;20055;-90
2022/02/03 20:43:21;;;;;;;2.58;0.60;;;;;;;;;;4374691;32;20031;-90
2022/02/03 20:45:50;;;;;;;3.37;0.80;;;;;;;;;;4375468;32;20089;-90
2022/02/03 20:48:19;;;;;;;3.15;0.80;;;;;;;;;;4376078;32;20061;-90
2022/02/03 20:50:49;;;;;;;5.15;1.10;;;;;;;;;;4378219;32;20226;-90
2022/02/03 20:53:18;;;;;;;1.42;0.70;;;;;;;;;;4363574;32;20051;-90
2022/02/03 20:55:49;;;;;;;6.15;0.73;;;;;;;;;;4376088;32;20023;-90
2022/02/03 20:58:20;;;;;;;4.87;0.93;;;;;;;;;;4376708;32;20099;-90
2022/02/03 21:00:59;;;;;;;3.47;0.62;;;;;;;;;;4375922;32;20067;-90
2022/02/03 21:03:49;;;;;;;2.22;0.73;;;;;;;;;;4376423;32;20081;-90
2022/02/03 21:06:17;;;;;;;4.00;0.95;;;;;;;;;;4374337;32;20320;-89
2022/02/03 21:08:49;;;;;;;3.75;0.65;;;;;;;;;;4375463;32;20027;-90
2022/02/03 21:11:18;;;;;;;5.68;0.70;;;;;;;;;;4376472;32;20082;-91
2022/02/03 21:13:47;;;;;;;5.07;0.80;;;;;;;;;;4375400;32;20055;-91
2022/02/03 21:16:16;;;;;;;5.87;0.73;;;;;;;;;;4350053;32;20097;-91
2022/02/03 21:18:46;;;;;;;4.05;0.80;;;;;;;;;;4375721;32;20448;-90
2022/02/03 21:21:15;;;;;;;3.28;0.70;;;;;;;;;;4375926;32;20046;-91
2022/02/03 21:23:43;;;;;;;4.78;0.80;;;;;;;;;;4362495;32;20066;-91
2022/02/03 21:26:18;;;;;;;3.40;0.80;;;;;;;;;;4375312;32;20039;-91
2022/02/03 21:28:49;;;;;;;2.83;0.60;;;;;;;;;;4375334;32;20031;-90
2022/02/03 21:31:19;;;;;;;5.28;0.88;;;;;;;;;;4364093;32;20370;-91
2022/02/03 21:33:51;;;;;;;12.13;1.77;;;;;;;;;;4364749;32;20360;-90
2022/02/03 21:36:23;;;;;;;10.95;1.87;;;;;;;;;;4352458;32;20317;-90
2022/02/03 21:38:51;;;;;;;11.52;1.37;;;;;;;;;;4352423;32;20153;-90
2022/02/03 21:41:21;;;;;;;12.95;1.10;;;;;;;;;;4364123;32;20055;-90
2022/02/03 21:43:49;;;;;;;9.30;1.30;;;;;;;;;;4377908;32;20106;-89
2022/02/03 21:46:18;;;;;;;7.68;1.37;;;;;;;;;;4378087;32;20028;-91
2022/02/03 21:48:49;;;;;;;10.15;1.67;;;;;;;;;;4377709;32;20070;-90
2022/02/03 21:51:22;;;;;;;6.32;1.25;;;;;;;;;;4345844;33;20055;-89
2022/02/03 21:53:52;;;;;;;10.50;1.23;;;;;;;;;;4351350;33;20044;-89
2022/02/03 21:56:21;;;;;;;6.72;1.30;;;;;;;;;;4363039;32;20361;-91
2022/02/03 21:58:50;;;;;;;9.57;1.30;;;;;;;;;;4350320;33;20066;-90
2022/02/03 22:01:22;;;;;;;5.10;1.12;;;;;;;;;;4362379;32;20185;-90
2022/02/03 22:03:53;;;;;;;7.20;1.17;;;;;;;;;;4364102;32;20047;-91
2022/02/03 22:06:21;;;;;;;6.50;1.37;;;;;;;;;;4361990;32;20070;-90
2022/02/03 22:08:50;;;;;;;9.43;1.17;;;;;;;;;;4351093;32;20309;-90
2022/02/03 22:11:19;;;;;;;8.10;1.15;;;;;;;;;;4362771;33;20083;-90
2022/02/03 22:13:47;;;;;;;5.82;0.98;;;;;;;;;;4348089;33;20040;-90
2022/02/03 22:16:21;;;;;;;4.47;1.23;;;;;;;;;;4362626;33;20054;-90
2022/02/03 22:18:51;;;;;;;3.85;0.77;;;;;;;;;;4349444;33;20040;-90
2022/02/03 22:21:39;;;;;;;7.65;1.25;;;;;;;;;;4349305;33;20028;-90
2022/02/03 22:24:21;;;;;;;5.78;0.98;;;;;;;;;;4360893;32;20462;-91
2022/02/03 22:43:34;;;;;;;4.50;0.90;;;;;;;;;;4361657;32;20043;-90
2022/02/03 22:48:36;;;;;;;5.78;1.00;;;;;;;;;;4348479;33;20093;-90
2022/02/03 22:51:07;;;;;;;5.47;0.98;;;;;;;;;;4362322;33;20419;-90
2022/02/03 22:53:36;;;;;;;6.37;0.88;;;;;;;;;;4348925;33;20040;-92
2022/02/03 22:56:07;;;;;;;7.15;1.00;;;;;;;;;;4338728;32;20085;-91
2022/02/03 23:01:15;;;;;;;3.97;0.90;;;;;;;;;;4348935;33;20348;-92
2022/02/03 23:03:44;;;;;;;3.35;0.93;;;;;;;;;;4361141;33;20371;-91
2022/02/03 23:06:13;;;;;;;5.90;1.23;;;;;;;;;;4348889;33;20363;-92
2022/02/03 23:14:09;;;;;;;5.72;0.90;;;;;;;;;;4360462;32;20052;-90
2022/02/03 23:22:10;;;;;;;1.73;0.80;;;;;;;;;;4361489;33;20072;-91
2022/02/03 23:24:51;;;;;;;3.83;0.80;;;;;;;;;;4336272;33;20123;-92
2022/02/03 23:27:47;;;;;;;4.22;0.73;;;;;;;;;;4337162;33;20094;-90
2022/02/03 23:30:18;;;;;;;3.97;0.73;;;;;;;;;;4348354;33;20099;-93
2022/02/03 23:32:51;;;;;;;5.40;0.75;;;;;;;;;;4350192;32;20046;-92
2022/02/03 23:35:32;;;;;;;2.47;0.80;;;;;;;;;;4362829;32;20039;-92
2022/02/03 23:38:30;;;;;;;3.47;0.90;;;;;;;;;;4362717;32;20058;-90
2022/02/03 23:44:05;;;;;;;2.15;0.75;;;;;;;;;;4375633;32;20067;-91
